sensor_id;sensor_type;location;lat;lon;timestamp;temperature;humidity
31038;DHT22;17702;47.590;7.666;2023-08-01T00:00:14;21.40;99.90
31038;DHT22;17702;47.590;7.666;2023-08-01T00:02:40;21.50;99.90
31038;DHT22;17702;47.590;7.666;2023-08-01T00:05:08;21.40;99.90
31038;DHT22;17702;47.590;7.666;2023-08-01T00:07:33;21.40;99.90
31038;DHT22;17702;47.590;7.666;2023-08-01T00:09:59;21.40;99.90
31038;DHT22;17702;47.590;7.666;2023-08-01T00:12:24;21.40;99.90
31038;DHT22;17702;47.590;7.666;2023-08-01T00:14:50;21.40;99.90
31038;DHT22;17702;47.590;7.666;2023-08-01T00:17:16;21.40;99.90
31038;DHT22;17702;47.590;7.666;2023-08-01T00:19:41;21.40;99.90
31038;DHT22;17702;47.590;7.666;2023-08-01T00:22:07;21.40;99.90
31038;DHT22;17702;47.590;7.666;2023-08-01T00:24:32;21.40;99.90
31038;DHT22;17702;47.590;7.666;2023-08-01T00:26:58;21.40;99.90
31038;DHT22;17702;47.590;7.666;2023-08-01T00:29:23;21.40;99.90
31038;DHT22;17702;47.590;7.666;2023-08-01T00:31:49;21.40;99.90
31038;DHT22;17702;47.590;7.666;2023-08-01T00:34:15;21.40;99.90
31038;DHT22;17702;47.590;7.666;2023-08-01T00:36:40;21.40;99.90
31038;DHT22;17702;47.590;7.666;2023-08-01T00:39:06;21.40;99.90
31038;DHT22;17702;47.590;7.666;2023-08-01T00:41:31;21.40;99.90
31038;DHT22;17702;47.590;7.666;2023-08-01T00:43:57;21.40;99.90
31038;DHT22;17702;47.590;7.666;2023-08-01T00:46:22;21.40;99.90
31038;DHT22;17702;47.590;7.666;2023-08-01T00:48:48;21.50;99.90
31038;DHT22;17702;47.590;7.666;2023-08-01T00:51:15;21.40;99.90
31038;DHT22;17702;47.590;7.666;2023-08-01T00:53:43;21.50;99.90
31038;DHT22;17702;47.590;7.666;2023-08-01T00:56:10;21.50;99.90
31038;DHT22;17702;47.590;7.666;2023-08-01T00:58:36;21.50;99.90
31038;DHT22;17702;47.590;7.666;2023-08-01T01:01:02;21.50;99.90
31038;DHT22;17702;47.590;7.666;2023-08-01T01:03:29;21.50;99.90
31038;DHT22;17702;47.590;7.666;2023-08-01T01:06:20;21.50;99.90
31038;DHT22;17702;47.590;7.666;2023-08-01T01:08:47;21.50;99.90
31038;DHT22;17702;47.590;7.666;2023-08-01T01:11:13;21.60;99.90
31038;DHT22;17702;47.590;7.666;2023-08-01T01:13:39;21.60;99.90
31038;DHT22;17702;47.590;7.666;2023-08-01T01:16:04;21.60;99.90
31038;DHT22;17702;47.590;7.666;2023-08-01T01:18:30;21.60;99.90
31038;DHT22;17702;47.590;7.666;2023-08-01T01:20:56;21.60;99.90
31038;DHT22;17702;47.590;7.666;2023-08-01T01:23:22;21.60;99.90
31038;DHT22;17702;47.590;7.666;2023-08-01T01:25:49;21.70;99.70
31038;DHT22;17702;47.590;7.666;2023-08-01T01:28:16;21.70;99.80
31038;DHT22;17702;47.590;7.666;2023-08-01T01:30:42;21.70;99.10
31038;DHT22;17702;47.590;7.666;2023-08-01T01:33:09;21.80;99.00
31038;DHT22;17702;47.590;7.666;2023-08-01T01:35:35;21.80;98.40
31038;DHT22;17702;47.590;7.666;2023-08-01T01:38:02;21.90;98.10
31038;DHT22;17702;47.590;7.666;2023-08-01T01:40:31;21.90;96.70
31038;DHT22;17702;47.590;7.666;2023-08-01T01:42:57;22.00;96.50
31038;DHT22;17702;47.590;7.666;2023-08-01T01:45:22;22.00;96.40
31038;DHT22;17702;47.590;7.666;2023-08-01T01:47:48;22.00;96.70
31038;DHT22;17702;47.590;7.666;2023-08-01T01:50:16;22.10;95.80
31038;DHT22;17702;47.590;7.666;2023-08-01T01:52:43;22.10;96.40
31038;DHT22;17702;47.590;7.666;2023-08-01T01:55:09;22.10;95.30
31038;DHT22;17702;47.590;7.666;2023-08-01T01:57:35;22.10;96.00
31038;DHT22;17702;47.590;7.666;2023-08-01T02:00:02;22.20;96.30
31038;DHT22;17702;47.590;7.666;2023-08-01T02:02:28;22.20;96.50
31038;DHT22;17702;47.590;7.666;2023-08-01T02:04:54;22.20;96.70
31038;DHT22;17702;47.590;7.666;2023-08-01T02:07:19;22.20;96.90
31038;DHT22;17702;47.590;7.666;2023-08-01T02:09:45;22.20;96.60
31038;DHT22;17702;47.590;7.666;2023-08-01T02:12:11;22.10;96.40
31038;DHT22;17702;47.590;7.666;2023-08-01T02:14:39;22.20;96.50
31038;DHT22;17702;47.590;7.666;2023-08-01T02:17:05;22.10;96.30
31038;DHT22;17702;47.590;7.666;2023-08-01T02:19:30;22.10;95.20
31038;DHT22;17702;47.590;7.666;2023-08-01T02:21:56;22.10;95.10
31038;DHT22;17702;47.590;7.666;2023-08-01T02:24:21;22.10;94.30
31038;DHT22;17702;47.590;7.666;2023-08-01T02:26:48;22.10;93.70
31038;DHT22;17702;47.590;7.666;2023-08-01T02:29:14;22.10;93.70
31038;DHT22;17702;47.590;7.666;2023-08-01T02:31:40;22.20;93.00
31038;DHT22;17702;47.590;7.666;2023-08-01T02:34:05;22.20;92.90
31038;DHT22;17702;47.590;7.666;2023-08-01T02:36:31;22.20;92.90
31038;DHT22;17702;47.590;7.666;2023-08-01T02:38:56;22.20;93.10
31038;DHT22;17702;47.590;7.666;2023-08-01T02:41:22;22.20;93.40
31038;DHT22;17702;47.590;7.666;2023-08-01T02:43:47;22.30;92.60
31038;DHT22;17702;47.590;7.666;2023-08-01T02:46:13;22.30;92.80
31038;DHT22;17702;47.590;7.666;2023-08-01T02:48:38;22.30;92.20
31038;DHT22;17702;47.590;7.666;2023-08-01T02:51:04;22.30;92.60
31038;DHT22;17702;47.590;7.666;2023-08-01T02:53:29;22.30;91.60
31038;DHT22;17702;47.590;7.666;2023-08-01T02:55:55;22.30;91.40
31038;DHT22;17702;47.590;7.666;2023-08-01T02:58:21;22.20;91.50
31038;DHT22;17702;47.590;7.666;2023-08-01T03:00:46;22.30;91.40
31038;DHT22;17702;47.590;7.666;2023-08-01T03:03:13;22.30;91.70
31038;DHT22;17702;47.590;7.666;2023-08-01T03:05:38;22.30;91.50
31038;DHT22;17702;47.590;7.666;2023-08-01T03:08:04;22.40;91.90
31038;DHT22;17702;47.590;7.666;2023-08-01T03:10:30;22.20;90.60
31038;DHT22;17702;47.590;7.666;2023-08-01T03:12:56;22.30;90.90
31038;DHT22;17702;47.590;7.666;2023-08-01T03:15:21;22.30;90.70
31038;DHT22;17702;47.590;7.666;2023-08-01T03:17:47;22.30;91.10
31038;DHT22;17702;47.590;7.666;2023-08-01T03:20:12;22.30;91.80
31038;DHT22;17702;47.590;7.666;2023-08-01T03:22:41;22.30;91.90
31038;DHT22;17702;47.590;7.666;2023-08-01T03:25:07;22.30;90.50
31038;DHT22;17702;47.590;7.666;2023-08-01T03:27:36;22.30;90.60
31038;DHT22;17702;47.590;7.666;2023-08-01T03:30:03;22.30;91.10
31038;DHT22;17702;47.590;7.666;2023-08-01T03:32:34;22.40;90.00
31038;DHT22;17702;47.590;7.666;2023-08-01T03:35:00;22.40;90.70
31038;DHT22;17702;47.590;7.666;2023-08-01T03:37:26;22.40;90.40
31038;DHT22;17702;47.590;7.666;2023-08-01T03:39:51;22.40;90.80
31038;DHT22;17702;47.590;7.666;2023-08-01T03:42:17;22.40;91.80
31038;DHT22;17702;47.590;7.666;2023-08-01T03:44:42;22.40;92.80
31038;DHT22;17702;47.590;7.666;2023-08-01T03:47:08;22.40;93.20
31038;DHT22;17702;47.590;7.666;2023-08-01T03:49:33;22.40;93.20
31038;DHT22;17702;47.590;7.666;2023-08-01T03:51:59;22.30;92.40
31038;DHT22;17702;47.590;7.666;2023-08-01T03:54:24;22.20;92.20
31038;DHT22;17702;47.590;7.666;2023-08-01T03:56:50;22.20;92.60
31038;DHT22;17702;47.590;7.666;2023-08-01T03:59:16;22.10;93.30
31038;DHT22;17702;47.590;7.666;2023-08-01T04:01:42;22.10;94.10
31038;DHT22;17702;47.590;7.666;2023-08-01T04:04:08;22.00;93.50
31038;DHT22;17702;47.590;7.666;2023-08-01T04:06:34;21.90;93.60
31038;DHT22;17702;47.590;7.666;2023-08-01T04:08:59;21.90;94.10
31038;DHT22;17702;47.590;7.666;2023-08-01T04:11:25;21.80;93.90
31038;DHT22;17702;47.590;7.666;2023-08-01T04:13:52;21.80;94.40
31038;DHT22;17702;47.590;7.666;2023-08-01T04:16:17;21.80;93.90
31038;DHT22;17702;47.590;7.666;2023-08-01T04:18:43;21.70;93.70
31038;DHT22;17702;47.590;7.666;2023-08-01T04:21:09;21.70;94.20
31038;DHT22;17702;47.590;7.666;2023-08-01T04:23:34;21.70;94.60
31038;DHT22;17702;47.590;7.666;2023-08-01T04:26:00;21.70;93.90
31038;DHT22;17702;47.590;7.666;2023-08-01T04:28:25;21.60;94.10
31038;DHT22;17702;47.590;7.666;2023-08-01T04:30:52;21.70;94.00
31038;DHT22;17702;47.590;7.666;2023-08-01T04:33:18;21.70;93.90
31038;DHT22;17702;47.590;7.666;2023-08-01T04:35:44;21.70;94.80
31038;DHT22;17702;47.590;7.666;2023-08-01T04:38:09;21.70;94.40
31038;DHT22;17702;47.590;7.666;2023-08-01T04:40:36;21.70;94.00
31038;DHT22;17702;47.590;7.666;2023-08-01T04:43:02;21.70;93.80
31038;DHT22;17702;47.590;7.666;2023-08-01T04:45:28;21.60;93.90
31038;DHT22;17702;47.590;7.666;2023-08-01T04:47:53;21.60;93.80
31038;DHT22;17702;47.590;7.666;2023-08-01T04:50:20;21.60;94.40
31038;DHT22;17702;47.590;7.666;2023-08-01T04:52:45;21.60;94.30
31038;DHT22;17702;47.590;7.666;2023-08-01T04:55:11;21.70;94.50
31038;DHT22;17702;47.590;7.666;2023-08-01T04:57:36;21.70;94.50
31038;DHT22;17702;47.590;7.666;2023-08-01T05:00:03;21.60;94.40
31038;DHT22;17702;47.590;7.666;2023-08-01T05:02:29;21.50;96.60
31038;DHT22;17702;47.590;7.666;2023-08-01T05:04:54;21.50;98.10
31038;DHT22;17702;47.590;7.666;2023-08-01T05:07:20;21.50;99.40
31038;DHT22;17702;47.590;7.666;2023-08-01T05:09:46;21.40;99.90
31038;DHT22;17702;47.590;7.666;2023-08-01T05:12:11;21.30;99.90
31038;DHT22;17702;47.590;7.666;2023-08-01T05:14:37;21.20;99.90
31038;DHT22;17702;47.590;7.666;2023-08-01T05:17:03;21.10;99.90
31038;DHT22;17702;47.590;7.666;2023-08-01T05:19:28;21.00;99.90
31038;DHT22;17702;47.590;7.666;2023-08-01T05:21:54;20.90;99.90
31038;DHT22;17702;47.590;7.666;2023-08-01T05:24:20;20.80;99.90
31038;DHT22;17702;47.590;7.666;2023-08-01T05:26:47;20.70;99.90
31038;DHT22;17702;47.590;7.666;2023-08-01T05:29:13;20.60;99.90
31038;DHT22;17702;47.590;7.666;2023-08-01T05:31:38;20.60;99.90
31038;DHT22;17702;47.590;7.666;2023-08-01T05:34:04;20.50;99.90
31038;DHT22;17702;47.590;7.666;2023-08-01T05:36:29;20.50;99.90
31038;DHT22;17702;47.590;7.666;2023-08-01T05:38:56;20.40;99.90
31038;DHT22;17702;47.590;7.666;2023-08-01T05:41:21;20.40;99.90
31038;DHT22;17702;47.590;7.666;2023-08-01T05:43:48;20.40;99.90
31038;DHT22;17702;47.590;7.666;2023-08-01T05:46:14;20.30;99.90
31038;DHT22;17702;47.590;7.666;2023-08-01T05:48:39;20.40;99.90
31038;DHT22;17702;47.590;7.666;2023-08-01T05:51:05;20.40;99.90
31038;DHT22;17702;47.590;7.666;2023-08-01T05:53:31;20.40;99.90
31038;DHT22;17702;47.590;7.666;2023-08-01T05:55:56;20.40;99.90
31038;DHT22;17702;47.590;7.666;2023-08-01T05:58:22;20.40;99.90
31038;DHT22;17702;47.590;7.666;2023-08-01T06:00:48;20.30;99.90
31038;DHT22;17702;47.590;7.666;2023-08-01T06:03:13;20.40;99.90
31038;DHT22;17702;47.590;7.666;2023-08-01T06:05:39;20.30;99.90
31038;DHT22;17702;47.590;7.666;2023-08-01T06:08:06;20.30;99.90
31038;DHT22;17702;47.590;7.666;2023-08-01T06:10:32;20.10;99.90
31038;DHT22;17702;47.590;7.666;2023-08-01T06:12:58;20.10;99.90
31038;DHT22;17702;47.590;7.666;2023-08-01T06:15:23;20.10;99.90
31038;DHT22;17702;47.590;7.666;2023-08-01T06:17:49;20.00;99.90
31038;DHT22;17702;47.590;7.666;2023-08-01T06:20:14;20.00;99.90
31038;DHT22;17702;47.590;7.666;2023-08-01T06:22:41;20.00;99.90
31038;DHT22;17702;47.590;7.666;2023-08-01T06:25:08;20.00;99.90
31038;DHT22;17702;47.590;7.666;2023-08-01T06:27:33;19.90;99.90
31038;DHT22;17702;47.590;7.666;2023-08-01T06:29:59;19.90;99.90
31038;DHT22;17702;47.590;7.666;2023-08-01T06:32:25;19.80;99.90
31038;DHT22;17702;47.590;7.666;2023-08-01T06:34:50;19.80;99.90
31038;DHT22;17702;47.590;7.666;2023-08-01T06:37:16;19.90;99.90
31038;DHT22;17702;47.590;7.666;2023-08-01T06:39:42;19.90;99.90
31038;DHT22;17702;47.590;7.666;2023-08-01T06:42:07;19.90;99.90
31038;DHT22;17702;47.590;7.666;2023-08-01T06:44:33;19.90;99.90
31038;DHT22;17702;47.590;7.666;2023-08-01T06:46:59;19.80;99.90
31038;DHT22;17702;47.590;7.666;2023-08-01T06:49:24;19.80;99.90
31038;DHT22;17702;47.590;7.666;2023-08-01T06:51:50;19.90;99.90
31038;DHT22;17702;47.590;7.666;2023-08-01T06:54:15;19.80;99.90
31038;DHT22;17702;47.590;7.666;2023-08-01T06:56:41;19.80;99.90
31038;DHT22;17702;47.590;7.666;2023-08-01T06:59:15;19.80;99.90
31038;DHT22;17702;47.590;7.666;2023-08-01T07:01:42;19.80;99.90
31038;DHT22;17702;47.590;7.666;2023-08-01T07:04:11;19.70;99.90
31038;DHT22;17702;47.590;7.666;2023-08-01T07:06:37;19.70;99.90
31038;DHT22;17702;47.590;7.666;2023-08-01T07:09:03;19.70;99.90
31038;DHT22;17702;47.590;7.666;2023-08-01T07:11:29;19.70;99.90
31038;DHT22;17702;47.590;7.666;2023-08-01T07:13:54;19.70;99.90
31038;DHT22;17702;47.590;7.666;2023-08-01T07:16:20;19.70;99.90
31038;DHT22;17702;47.590;7.666;2023-08-01T07:18:45;19.70;99.90
31038;DHT22;17702;47.590;7.666;2023-08-01T07:21:11;19.80;99.90
31038;DHT22;17702;47.590;7.666;2023-08-01T07:23:37;19.70;99.90
31038;DHT22;17702;47.590;7.666;2023-08-01T07:26:02;19.70;99.90
31038;DHT22;17702;47.590;7.666;2023-08-01T07:28:28;19.80;99.90
31038;DHT22;17702;47.590;7.666;2023-08-01T07:31:04;19.80;99.90
31038;DHT22;17702;47.590;7.666;2023-08-01T07:33:31;19.80;99.90
31038;DHT22;17702;47.590;7.666;2023-08-01T07:35:57;19.80;99.90
31038;DHT22;17702;47.590;7.666;2023-08-01T07:38:23;19.80;99.90
31038;DHT22;17702;47.590;7.666;2023-08-01T07:40:49;19.80;99.90
31038;DHT22;17702;47.590;7.666;2023-08-01T07:43:14;19.80;99.90
31038;DHT22;17702;47.590;7.666;2023-08-01T07:45:40;19.80;99.90
31038;DHT22;17702;47.590;7.666;2023-08-01T07:48:06;19.80;99.90
31038;DHT22;17702;47.590;7.666;2023-08-01T07:50:31;19.80;99.90
31038;DHT22;17702;47.590;7.666;2023-08-01T07:52:57;19.80;99.90
31038;DHT22;17702;47.590;7.666;2023-08-01T07:55:22;19.80;99.90
31038;DHT22;17702;47.590;7.666;2023-08-01T07:57:48;19.90;99.90
31038;DHT22;17702;47.590;7.666;2023-08-01T08:00:14;19.90;99.90
31038;DHT22;17702;47.590;7.666;2023-08-01T08:02:42;19.90;99.90
31038;DHT22;17702;47.590;7.666;2023-08-01T08:05:08;19.90;99.90
31038;DHT22;17702;47.590;7.666;2023-08-01T08:07:34;19.90;99.90
31038;DHT22;17702;47.590;7.666;2023-08-01T08:09:59;19.90;99.90
31038;DHT22;17702;47.590;7.666;2023-08-01T08:12:25;20.00;99.90
31038;DHT22;17702;47.590;7.666;2023-08-01T08:14:50;20.00;99.90
31038;DHT22;17702;47.590;7.666;2023-08-01T08:17:16;20.00;99.90
31038;DHT22;17702;47.590;7.666;2023-08-01T08:19:42;20.00;99.90
31038;DHT22;17702;47.590;7.666;2023-08-01T08:22:07;20.00;99.90
31038;DHT22;17702;47.590;7.666;2023-08-01T08:24:33;20.00;99.90
31038;DHT22;17702;47.590;7.666;2023-08-01T08:26:58;20.00;99.90
31038;DHT22;17702;47.590;7.666;2023-08-01T08:29:24;20.00;99.90
31038;DHT22;17702;47.590;7.666;2023-08-01T08:31:50;20.00;99.90
31038;DHT22;17702;47.590;7.666;2023-08-01T08:34:15;20.00;99.90
31038;DHT22;17702;47.590;7.666;2023-08-01T08:36:41;20.00;99.90
31038;DHT22;17702;47.590;7.666;2023-08-01T08:39:07;19.90;99.90
31038;DHT22;17702;47.590;7.666;2023-08-01T08:41:38;20.00;99.90
31038;DHT22;17702;47.590;7.666;2023-08-01T08:44:07;20.00;99.90
31038;DHT22;17702;47.590;7.666;2023-08-01T08:46:37;20.00;99.90
31038;DHT22;17702;47.590;7.666;2023-08-01T08:49:06;20.00;99.90
31038;DHT22;17702;47.590;7.666;2023-08-01T08:51:32;20.00;99.90
31038;DHT22;17702;47.590;7.666;2023-08-01T08:53:59;20.10;99.90
31038;DHT22;17702;47.590;7.666;2023-08-01T08:56:26;20.00;99.90
31038;DHT22;17702;47.590;7.666;2023-08-01T08:58:54;20.10;99.90
31038;DHT22;17702;47.590;7.666;2023-08-01T09:01:19;20.20;99.90
31038;DHT22;17702;47.590;7.666;2023-08-01T09:03:45;20.30;99.90
31038;DHT22;17702;47.590;7.666;2023-08-01T09:06:23;20.30;99.90
31038;DHT22;17702;47.590;7.666;2023-08-01T09:11:46;20.40;99.90
31038;DHT22;17702;47.590;7.666;2023-08-01T09:14:11;20.40;99.90
31038;DHT22;17702;47.590;7.666;2023-08-01T09:16:39;20.40;99.90
31038;DHT22;17702;47.590;7.666;2023-08-01T09:19:06;20.50;99.90
31038;DHT22;17702;47.590;7.666;2023-08-01T09:21:33;20.50;99.90
31038;DHT22;17702;47.590;7.666;2023-08-01T09:24:11;20.50;99.90
31038;DHT22;17702;47.590;7.666;2023-08-01T09:26:38;20.60;99.90
31038;DHT22;17702;47.590;7.666;2023-08-01T09:29:04;20.60;99.90
31038;DHT22;17702;47.590;7.666;2023-08-01T09:31:31;20.60;99.90
31038;DHT22;17702;47.590;7.666;2023-08-01T09:33:57;20.70;99.90
31038;DHT22;17702;47.590;7.666;2023-08-01T09:36:23;20.70;99.90
31038;DHT22;17702;47.590;7.666;2023-08-01T09:38:50;20.60;99.90
31038;DHT22;17702;47.590;7.666;2023-08-01T09:41:20;20.60;99.90
31038;DHT22;17702;47.590;7.666;2023-08-01T09:43:46;20.60;99.90
31038;DHT22;17702;47.590;7.666;2023-08-01T09:46:13;20.70;99.90
31038;DHT22;17702;47.590;7.666;2023-08-01T09:48:39;20.80;99.90
31038;DHT22;17702;47.590;7.666;2023-08-01T09:51:12;20.80;99.90
31038;DHT22;17702;47.590;7.666;2023-08-01T09:53:51;20.80;99.90
31038;DHT22;17702;47.590;7.666;2023-08-01T09:56:24;20.80;99.90
31038;DHT22;17702;47.590;7.666;2023-08-01T09:58:51;20.80;99.90
31038;DHT22;17702;47.590;7.666;2023-08-01T10:01:20;20.90;99.90
31038;DHT22;17702;47.590;7.666;2023-08-01T10:03:48;20.80;99.90
31038;DHT22;17702;47.590;7.666;2023-08-01T10:06:18;20.90;99.90
31038;DHT22;17702;47.590;7.666;2023-08-01T10:08:47;20.90;99.90
31038;DHT22;17702;47.590;7.666;2023-08-01T10:11:21;20.80;99.90
31038;DHT22;17702;47.590;7.666;2023-08-01T10:13:47;20.90;99.90
31038;DHT22;17702;47.590;7.666;2023-08-01T10:16:14;20.90;99.90
31038;DHT22;17702;47.590;7.666;2023-08-01T10:18:40;20.90;99.90
31038;DHT22;17702;47.590;7.666;2023-08-01T10:21:10;20.90;99.90
31038;DHT22;17702;47.590;7.666;2023-08-01T10:23:37;20.80;99.90
31038;DHT22;17702;47.590;7.666;2023-08-01T10:26:05;20.80;99.90
31038;DHT22;17702;47.590;7.666;2023-08-01T10:28:35;20.80;99.90
31038;DHT22;17702;47.590;7.666;2023-08-01T10:31:12;20.80;99.90
31038;DHT22;17702;47.590;7.666;2023-08-01T10:33:40;20.80;99.90
31038;DHT22;17702;47.590;7.666;2023-08-01T10:36:19;20.80;99.90
31038;DHT22;17702;47.590;7.666;2023-08-01T10:38:56;20.90;99.90
31038;DHT22;17702;47.590;7.666;2023-08-01T10:41:26;21.00;99.90
31038;DHT22;17702;47.590;7.666;2023-08-01T10:44:04;21.00;99.90
31038;DHT22;17702;47.590;7.666;2023-08-01T10:46:48;20.90;99.90
31038;DHT22;17702;47.590;7.666;2023-08-01T10:49:15;20.90;99.90
31038;DHT22;17702;47.590;7.666;2023-08-01T10:51:41;21.00;99.90
31038;DHT22;17702;47.590;7.666;2023-08-01T10:54:17;21.00;99.90
31038;DHT22;17702;47.590;7.666;2023-08-01T10:56:45;21.00;99.90
31038;DHT22;17702;47.590;7.666;2023-08-01T10:59:13;21.00;99.90
31038;DHT22;17702;47.590;7.666;2023-08-01T11:01:47;21.10;99.90
31038;DHT22;17702;47.590;7.666;2023-08-01T11:04:20;21.10;99.90
31038;DHT22;17702;47.590;7.666;2023-08-01T11:06:48;21.10;99.90
31038;DHT22;17702;47.590;7.666;2023-08-01T11:09:27;21.20;99.90
31038;DHT22;17702;47.590;7.666;2023-08-01T11:11:57;21.20;99.90
31038;DHT22;17702;47.590;7.666;2023-08-01T11:14:25;21.20;99.90
31038;DHT22;17702;47.590;7.666;2023-08-01T11:16:54;21.20;99.90
31038;DHT22;17702;47.590;7.666;2023-08-01T11:19:25;21.20;99.90
31038;DHT22;17702;47.590;7.666;2023-08-01T11:21:51;21.30;99.90
31038;DHT22;17702;47.590;7.666;2023-08-01T11:24:22;21.20;99.90
31038;DHT22;17702;47.590;7.666;2023-08-01T11:26:49;21.30;99.90
31038;DHT22;17702;47.590;7.666;2023-08-01T11:29:16;21.30;99.90
31038;DHT22;17702;47.590;7.666;2023-08-01T11:31:54;21.30;99.90
31038;DHT22;17702;47.590;7.666;2023-08-01T11:34:21;21.30;99.90
31038;DHT22;17702;47.590;7.666;2023-08-01T11:36:47;21.30;99.90
31038;DHT22;17702;47.590;7.666;2023-08-01T11:39:13;21.30;99.90
31038;DHT22;17702;47.590;7.666;2023-08-01T11:41:39;21.40;99.90
31038;DHT22;17702;47.590;7.666;2023-08-01T11:44:05;21.40;99.90
31038;DHT22;17702;47.590;7.666;2023-08-01T11:46:34;21.40;99.90
31038;DHT22;17702;47.590;7.666;2023-08-01T11:49:01;21.40;99.90
31038;DHT22;17702;47.590;7.666;2023-08-01T11:51:28;21.40;99.90
31038;DHT22;17702;47.590;7.666;2023-08-01T11:54:03;21.40;99.90
31038;DHT22;17702;47.590;7.666;2023-08-01T11:56:30;21.40;99.90
31038;DHT22;17702;47.590;7.666;2023-08-01T11:58:56;21.40;99.90
31038;DHT22;17702;47.590;7.666;2023-08-01T12:01:21;21.40;99.90
31038;DHT22;17702;47.590;7.666;2023-08-01T12:03:51;21.40;99.90
31038;DHT22;17702;47.590;7.666;2023-08-01T12:06:22;21.40;99.90
31038;DHT22;17702;47.590;7.666;2023-08-01T12:08:50;21.40;99.90
31038;DHT22;17702;47.590;7.666;2023-08-01T12:11:25;21.40;99.90
31038;DHT22;17702;47.590;7.666;2023-08-01T12:14:12;21.30;99.90
31038;DHT22;17702;47.590;7.666;2023-08-01T12:16:42;21.30;99.90
31038;DHT22;17702;47.590;7.666;2023-08-01T12:19:17;21.30;99.90
31038;DHT22;17702;47.590;7.666;2023-08-01T12:21:43;21.20;99.90
31038;DHT22;17702;47.590;7.666;2023-08-01T12:24:09;21.10;99.90
31038;DHT22;17702;47.590;7.666;2023-08-01T12:26:35;21.00;99.90
31038;DHT22;17702;47.590;7.666;2023-08-01T12:29:00;20.90;99.90
31038;DHT22;17702;47.590;7.666;2023-08-01T12:31:26;20.90;99.90
31038;DHT22;17702;47.590;7.666;2023-08-01T12:33:51;21.00;99.90
31038;DHT22;17702;47.590;7.666;2023-08-01T12:36:19;21.00;99.90
31038;DHT22;17702;47.590;7.666;2023-08-01T12:38:44;20.90;99.90
31038;DHT22;17702;47.590;7.666;2023-08-01T12:41:10;20.90;99.90
31038;DHT22;17702;47.590;7.666;2023-08-01T12:43:36;20.90;99.90
31038;DHT22;17702;47.590;7.666;2023-08-01T12:46:02;20.90;99.90
31038;DHT22;17702;47.590;7.666;2023-08-01T12:48:28;20.90;99.90
31038;DHT22;17702;47.590;7.666;2023-08-01T12:50:54;21.00;99.90
31038;DHT22;17702;47.590;7.666;2023-08-01T12:53:21;21.10;99.90
31038;DHT22;17702;47.590;7.666;2023-08-01T12:55:48;21.00;99.90
31038;DHT22;17702;47.590;7.666;2023-08-01T12:58:14;21.00;99.90
31038;DHT22;17702;47.590;7.666;2023-08-01T13:00:40;21.10;99.90
31038;DHT22;17702;47.590;7.666;2023-08-01T13:03:07;21.10;99.90
31038;DHT22;17702;47.590;7.666;2023-08-01T13:05:40;21.10;99.90
31038;DHT22;17702;47.590;7.666;2023-08-01T13:08:07;21.00;99.90
31038;DHT22;17702;47.590;7.666;2023-08-01T13:10:34;21.10;99.90
31038;DHT22;17702;47.590;7.666;2023-08-01T13:13:00;20.90;99.90
31038;DHT22;17702;47.590;7.666;2023-08-01T13:15:26;20.90;99.90
31038;DHT22;17702;47.590;7.666;2023-08-01T13:17:52;21.00;99.90
31038;DHT22;17702;47.590;7.666;2023-08-01T13:20:18;21.00;99.90
31038;DHT22;17702;47.590;7.666;2023-08-01T13:22:46;21.20;99.90
31038;DHT22;17702;47.590;7.666;2023-08-01T13:25:13;21.30;99.90
31038;DHT22;17702;47.590;7.666;2023-08-01T13:27:39;21.50;99.90
31038;DHT22;17702;47.590;7.666;2023-08-01T13:30:05;21.70;99.90
31038;DHT22;17702;47.590;7.666;2023-08-01T13:32:31;21.80;99.90
31038;DHT22;17702;47.590;7.666;2023-08-01T13:34:57;21.80;99.90
31038;DHT22;17702;47.590;7.666;2023-08-01T13:37:22;21.80;99.90
31038;DHT22;17702;47.590;7.666;2023-08-01T13:39:48;21.90;99.90
31038;DHT22;17702;47.590;7.666;2023-08-01T13:42:13;21.80;99.90
31038;DHT22;17702;47.590;7.666;2023-08-01T13:44:40;21.70;99.90
31038;DHT22;17702;47.590;7.666;2023-08-01T13:47:06;21.70;99.90
31038;DHT22;17702;47.590;7.666;2023-08-01T13:49:31;21.60;99.90
31038;DHT22;17702;47.590;7.666;2023-08-01T13:51:58;21.70;99.90
31038;DHT22;17702;47.590;7.666;2023-08-01T13:54:23;21.90;99.90
31038;DHT22;17702;47.590;7.666;2023-08-01T13:56:49;21.90;99.90
31038;DHT22;17702;47.590;7.666;2023-08-01T13:59:15;22.00;99.90
31038;DHT22;17702;47.590;7.666;2023-08-01T14:01:40;21.90;99.90
31038;DHT22;17702;47.590;7.666;2023-08-01T14:04:06;21.90;99.90
31038;DHT22;17702;47.590;7.666;2023-08-01T14:06:31;22.00;99.90
31038;DHT22;17702;47.590;7.666;2023-08-01T14:08:57;22.10;99.90
31038;DHT22;17702;47.590;7.666;2023-08-01T14:11:23;22.20;99.90
31038;DHT22;17702;47.590;7.666;2023-08-01T14:13:49;22.20;99.90
31038;DHT22;17702;47.590;7.666;2023-08-01T14:16:14;22.30;99.90
31038;DHT22;17702;47.590;7.666;2023-08-01T14:18:42;22.30;99.30
31038;DHT22;17702;47.590;7.666;2023-08-01T14:21:08;22.30;99.90
31038;DHT22;17702;47.590;7.666;2023-08-01T14:23:33;22.40;99.30
31038;DHT22;17702;47.590;7.666;2023-08-01T14:25:59;22.30;99.80
31038;DHT22;17702;47.590;7.666;2023-08-01T14:28:25;22.40;99.90
31038;DHT22;17702;47.590;7.666;2023-08-01T14:30:50;22.40;99.90
31038;DHT22;17702;47.590;7.666;2023-08-01T14:33:16;22.40;99.90
31038;DHT22;17702;47.590;7.666;2023-08-01T14:35:41;22.50;99.90
31038;DHT22;17702;47.590;7.666;2023-08-01T14:38:07;22.60;99.90
31038;DHT22;17702;47.590;7.666;2023-08-01T14:40:34;22.70;99.90
31038;DHT22;17702;47.590;7.666;2023-08-01T14:43:01;22.80;99.50
31038;DHT22;17702;47.590;7.666;2023-08-01T14:45:27;22.90;99.60
31038;DHT22;17702;47.590;7.666;2023-08-01T14:47:52;22.90;99.90
31038;DHT22;17702;47.590;7.666;2023-08-01T14:50:18;22.90;99.90
31038;DHT22;17702;47.590;7.666;2023-08-01T14:52:44;22.90;99.90
31038;DHT22;17702;47.590;7.666;2023-08-01T14:55:10;23.00;99.90
31038;DHT22;17702;47.590;7.666;2023-08-01T14:57:35;22.90;99.70
31038;DHT22;17702;47.590;7.666;2023-08-01T15:00:02;22.90;99.60
31038;DHT22;17702;47.590;7.666;2023-08-01T15:02:28;23.00;99.90
31038;DHT22;17702;47.590;7.666;2023-08-01T15:04:55;22.90;99.90
31038;DHT22;17702;47.590;7.666;2023-08-01T15:07:25;22.90;99.60
31038;DHT22;17702;47.590;7.666;2023-08-01T15:09:51;22.90;99.90
31038;DHT22;17702;47.590;7.666;2023-08-01T15:12:18;22.80;99.70
31038;DHT22;17702;47.590;7.666;2023-08-01T15:14:49;22.80;99.10
31038;DHT22;17702;47.590;7.666;2023-08-01T15:17:15;22.90;99.90
31038;DHT22;17702;47.590;7.666;2023-08-01T15:19:41;23.00;99.80
31038;DHT22;17702;47.590;7.666;2023-08-01T15:22:06;23.20;99.10
31038;DHT22;17702;47.590;7.666;2023-08-01T15:24:32;23.30;99.80
31038;DHT22;17702;47.590;7.666;2023-08-01T15:26:57;23.30;99.60
31038;DHT22;17702;47.590;7.666;2023-08-01T15:29:23;23.40;98.70